KPOB/POB METAR and TAF weather

Enter ICAO airport designator
Station Type Date Time Source
KPOB METAR 2021/03/03 20:56 UTC NOAA

KPOB 032056Z 36003KT 10SM CLR 17/M04 A2992 RMK A02A SLP135 T017101039


Station Type Date Time Source
KPOB Decoded METAR 2021/03/03 20:56 UTC NOAA

Pope Air Force Base, NC, United States (KPOB) 35-10N 079-02W 61M
Mar 03, 2021 - 03:56 PM EST / 2021.03.03 2056 UTC
Wind: from the N (360 degrees) at 3 MPH (3 KT):0
Visibility: 10 mile(s):0
Sky conditions: clear
Temperature: 62.8 F (17.1 C)
Dew Point: 50.5 F (10.3 C)
Relative Humidity: 64%
Pressure (altimeter): 29.92 in. Hg (1013 hPa)
ob: KPOB 032056Z 36003KT 10SM CLR 17/M04 A2992 RMK A02A SLP135 T017101039
cycle: 21

Station Type Date Time Source
KPOB TAF 2021/03/03 18:52 UTC NOAA

TAF KPOB 031845Z 0318/0424 04007KT 9999 FEW040 SCT200 QNH2991INS
BECMG 0322/0323 36003KT 9999 NSW SKC QNH2991INS
BECMG 0414/0415 32010G18KT 9999 SKC QNH2991INS
BECMG 0421/0422 32004KT 9999 SKC QNH2994INS TX17/0320Z TN02/0412Z

Example: see airport list